createdAt,value
2018-05-14T00:00:38.031Z,148.10
2018-05-14T00:03:05.500Z,154.30
2018-05-14T00:05:32.979Z,140.70
2018-05-14T00:08:00.456Z,149.00
2018-05-14T00:10:28.698Z,175.40
2018-05-14T00:12:56.240Z,146.27
2018-05-14T00:15:23.707Z,160.93
2018-05-14T00:17:51.184Z,146.73
2018-05-14T00:20:18.650Z,165.90
2018-05-14T00:22:46.133Z,165.37
2018-05-14T00:25:13.593Z,170.33
2018-05-14T00:27:41.062Z,156.45
2018-05-14T00:30:08.522Z,175.95
2018-05-14T00:32:35.996Z,177.65
2018-05-14T00:35:03.474Z,156.83
2018-05-14T00:37:30.930Z,152.85
2018-05-14T00:39:58.721Z,165.80
2018-05-14T00:42:26.183Z,153.40
2018-05-14T00:44:53.670Z,159.77
2018-05-14T00:47:21.136Z,165.30
2018-05-14T00:49:48.604Z,153.35
2018-05-14T00:52:19.938Z,147.80
2018-05-14T00:54:59.257Z,157.70
2018-05-14T00:57:26.713Z,139.60
2018-05-14T00:59:54.189Z,130.82
2018-05-14T01:02:21.658Z,127.78
2018-05-14T01:04:49.112Z,153.62
2018-05-14T01:07:16.594Z,171.55
2018-05-14T01:09:44.076Z,164.25
2018-05-14T01:12:11.533Z,176.18
2018-05-14T01:14:39.014Z,184.50
2018-05-14T01:17:06.477Z,175.57
2018-05-14T01:19:33.932Z,152.00
2018-05-14T01:22:01.400Z,161.12
2018-05-14T01:24:28.856Z,176.57
2018-05-14T01:26:56.355Z,170.02
2018-05-14T01:29:23.828Z,164.30
2018-05-14T01:31:51.290Z,163.77
2018-05-14T01:34:18.780Z,160.90
2018-05-14T01:36:46.233Z,173.38
2018-05-14T01:39:13.714Z,160.90
2018-05-14T01:41:41.191Z,181.93
2018-05-14T01:44:09.440Z,148.68
2018-05-14T01:46:36.937Z,141.12
2018-05-14T01:49:04.410Z,140.10
2018-05-14T01:51:31.867Z,155.10
2018-05-14T01:53:59.350Z,151.80
2018-05-14T01:56:26.816Z,154.43
2018-05-14T01:58:54.277Z,161.23
2018-05-14T02:01:21.746Z,167.15
2018-05-14T02:03:49.199Z,157.27
2018-05-14T02:06:16.683Z,159.50
2018-05-14T02:08:44.133Z,152.20
2018-05-14T02:11:11.600Z,133.80
2018-05-14T02:13:39.064Z,116.70
2018-05-14T02:16:06.517Z,113.03
2018-05-14T02:18:33.998Z,126.85
2018-05-14T02:21:01.454Z,108.07
2018-05-14T02:23:28.972Z,116.72
2018-05-14T02:25:56.488Z,121.75
2018-05-14T02:28:23.939Z,123.68
2018-05-14T02:30:52.188Z,129.23
2018-05-14T02:33:19.664Z,138.73
2018-05-14T02:35:47.124Z,130.05
2018-05-14T02:38:14.605Z,126.80
2018-05-14T02:40:42.096Z,114.68
2018-05-14T02:43:10.316Z,113.63
2018-05-14T02:45:37.782Z,108.82
2018-05-14T02:48:05.256Z,106.40
2018-05-14T02:50:32.712Z,104.50
2018-05-14T02:53:00.179Z,113.15
2018-05-14T02:55:28.426Z,110.18
2018-05-14T02:57:55.902Z,108.10
2018-05-14T03:00:23.375Z,103.20
2018-05-14T03:02:50.817Z,99.40
2018-05-14T03:05:18.286Z,99.03
2018-05-14T03:07:45.760Z,101.50
2018-05-14T03:10:13.225Z,101.55
2018-05-14T03:12:41.456Z,115.20
2018-05-14T03:15:09.704Z,105.22
2018-05-14T03:17:37.164Z,99.65
2018-05-14T03:20:04.628Z,99.22
2018-05-14T03:22:32.094Z,100.55
2018-05-14T03:24:59.548Z,98.32
2018-05-14T03:27:27.030Z,88.78
2018-05-14T03:29:54.506Z,86.47
2018-05-14T03:32:21.978Z,92.12
2018-05-14T03:34:49.429Z,86.43
2018-05-14T03:37:16.951Z,94.22
2018-05-14T03:39:44.381Z,82.43
2018-05-14T03:42:11.847Z,83.47
2018-05-14T03:44:39.310Z,91.60
2018-05-14T03:47:06.799Z,86.32
2018-05-14T03:49:34.239Z,92.22
2018-05-14T03:52:01.720Z,83.12
2018-05-14T03:54:29.186Z,81.87
2018-05-14T03:56:56.673Z,80.43
2018-05-14T03:59:50.871Z,83.55
2018-05-14T04:02:30.280Z,87.10
2018-05-14T04:07:58.527Z,96.03
2018-05-14T04:10:25.997Z,82.10
2018-05-14T04:12:53.456Z,84.03
2018-05-14T04:15:21.699Z,89.15
2018-05-14T04:17:49.140Z,85.50
2018-05-14T04:20:16.607Z,87.00
2018-05-14T04:22:44.078Z,77.20
2018-05-14T04:25:11.546Z,79.30
2018-05-14T04:27:38.991Z,79.10
2018-05-14T04:30:07.350Z,75.25
2018-05-14T04:32:34.714Z,79.40
2018-05-14T04:35:02.178Z,69.28
2018-05-14T04:37:29.652Z,72.37
2018-05-14T04:39:57.118Z,66.20
2018-05-14T04:42:24.578Z,69.57
2018-05-14T04:44:52.028Z,70.40
2018-05-14T04:47:19.506Z,68.15
2018-05-14T04:49:46.956Z,68.37
2018-05-14T04:52:14.426Z,71.82
2018-05-14T04:54:41.891Z,63.20
2018-05-14T04:57:09.388Z,71.07
2018-05-14T04:59:36.863Z,67.30
2018-05-14T05:02:04.319Z,61.05
2018-05-14T05:04:31.777Z,63.30
2018-05-14T05:06:59.252Z,70.82
2018-05-14T05:09:26.706Z,64.57
2018-05-14T05:11:54.170Z,67.50
2018-05-14T05:14:21.642Z,70.20
2018-05-14T05:16:49.089Z,65.20
2018-05-14T05:19:16.560Z,68.03
2018-05-14T05:21:44.788Z,68.53
2018-05-14T05:24:12.242Z,77.83
2018-05-14T05:26:39.722Z,70.55
2018-05-14T05:29:07.186Z,67.12
2018-05-14T05:31:34.645Z,64.50
2018-05-14T05:34:02.106Z,68.15
2018-05-14T05:36:30.326Z,61.08
2018-05-14T05:38:57.775Z,65.40
2018-05-14T05:41:25.221Z,64.20
2018-05-14T05:43:53.449Z,63.95
2018-05-14T05:46:20.911Z,61.83
2018-05-14T05:48:48.380Z,65.53
2018-05-14T05:51:15.838Z,58.42
2018-05-14T05:53:43.313Z,59.33
2018-05-14T05:56:10.771Z,58.03
2018-05-14T05:58:38.238Z,59.95
2018-05-14T06:01:05.810Z,54.08
2018-05-14T06:03:33.277Z,57.35
2018-05-14T06:06:01.481Z,54.20
2018-05-14T06:08:28.937Z,59.10
2018-05-14T06:10:56.438Z,58.97
2018-05-14T06:13:23.899Z,53.90
2018-05-14T06:15:51.362Z,56.80
2018-05-14T06:18:18.818Z,56.75
2018-05-14T06:20:46.297Z,60.03
2018-05-14T06:23:13.731Z,61.25
2018-05-14T06:25:41.970Z,57.58
2018-05-14T06:28:09.435Z,53.15
2018-05-14T06:30:36.903Z,57.17
2018-05-14T06:33:04.383Z,55.92
2018-05-14T06:35:31.940Z,60.03
2018-05-14T06:37:59.315Z,55.85
2018-05-14T06:40:26.752Z,59.03
2018-05-14T06:42:55.117Z,61.67
2018-05-14T06:45:22.564Z,62.05
2018-05-14T06:47:50.016Z,65.10
2018-05-14T06:50:17.479Z,59.05
2018-05-14T06:52:44.954Z,80.00
2018-05-14T06:55:12.494Z,58.92
2018-05-14T06:57:39.903Z,58.70
2018-05-14T07:00:07.345Z,57.22
2018-05-14T07:02:34.786Z,60.03
2018-05-14T07:05:03.018Z,56.63
2018-05-14T07:07:30.469Z,53.40
2018-05-14T07:09:57.938Z,55.42
2018-05-14T07:12:25.406Z,55.30
2018-05-14T07:14:52.862Z,52.47
2018-05-14T07:17:21.107Z,53.42
2018-05-14T07:19:48.577Z,52.72
2018-05-14T07:22:16.020Z,53.20
2018-05-14T07:24:43.566Z,51.78
2018-05-14T07:27:10.932Z,53.90
2018-05-14T07:29:39.152Z,48.60
2018-05-14T07:32:06.617Z,46.90
2018-05-14T07:34:34.060Z,45.50
2018-05-14T07:37:02.290Z,42.80
2018-05-14T07:39:29.757Z,45.33
2018-05-14T07:41:57.232Z,49.97
2018-05-14T07:44:24.699Z,46.37
2018-05-14T07:46:52.144Z,43.87
2018-05-14T07:49:19.608Z,45.53
2018-05-14T07:51:47.064Z,44.25
2018-05-14T07:54:15.275Z,40.60
2018-05-14T07:56:42.732Z,36.08
2018-05-14T07:59:10.183Z,40.80
2018-05-14T08:01:38.422Z,39.35
2018-05-14T08:04:05.894Z,40.63
2018-05-14T08:06:33.345Z,36.05
2018-05-14T08:09:00.823Z,34.55
2018-05-14T08:11:28.274Z,38.22
2018-05-14T08:13:55.724Z,36.58
2018-05-14T08:16:23.936Z,35.78
2018-05-14T08:18:51.393Z,32.92
2018-05-14T08:21:18.861Z,32.75
2018-05-14T08:23:47.090Z,35.45
2018-05-14T08:26:14.547Z,33.10
2018-05-14T08:28:42.000Z,33.88
2018-05-14T08:31:09.462Z,33.25
2018-05-14T08:33:36.931Z,31.98
2018-05-14T08:36:04.379Z,35.38
2018-05-14T08:38:32.615Z,29.55
2018-05-14T08:41:00.075Z,30.15
2018-05-14T08:43:27.536Z,29.08
2018-05-14T08:45:55.010Z,29.45
2018-05-14T08:48:22.452Z,31.75
2018-05-14T08:50:50.810Z,28.85
2018-05-14T08:53:18.266Z,26.90
2018-05-14T08:55:45.730Z,29.50
2018-05-14T08:58:13.180Z,25.45
2018-05-14T09:00:40.698Z,25.50
2018-05-14T09:03:08.121Z,23.87
2018-05-14T09:05:35.582Z,25.60
2018-05-14T09:08:03.046Z,22.65
2018-05-14T09:10:30.519Z,24.85
2018-05-14T09:12:57.976Z,22.33
2018-05-14T09:15:26.200Z,25.33
2018-05-14T09:17:53.656Z,22.20
2018-05-14T09:20:21.109Z,24.55
2018-05-14T09:22:48.592Z,22.20
2018-05-14T09:25:16.064Z,22.08
2018-05-14T09:27:43.503Z,20.65
2018-05-14T09:30:11.724Z,20.02
2018-05-14T09:32:39.176Z,23.37
2018-05-14T09:35:06.644Z,23.30
2018-05-14T09:37:34.110Z,19.40
2018-05-14T09:40:01.583Z,18.95
2018-05-14T09:42:29.911Z,20.92
2018-05-14T09:44:57.423Z,18.60
2018-05-14T09:47:25.658Z,18.73
2018-05-14T09:49:53.116Z,17.52
2018-05-14T09:52:20.578Z,19.20
2018-05-14T09:54:48.035Z,17.13
2018-05-14T09:57:16.259Z,19.65
2018-05-14T09:59:43.724Z,15.87
2018-05-14T10:02:11.170Z,16.87
2018-05-14T10:04:38.626Z,16.53
2018-05-14T10:07:06.852Z,15.55
2018-05-14T10:09:34.307Z,16.13
2018-05-14T10:12:01.773Z,16.52
2018-05-14T10:14:29.365Z,15.87
2018-05-14T10:16:57.455Z,14.47
2018-05-14T10:19:24.941Z,15.80
2018-05-14T10:21:53.260Z,16.23
2018-05-14T10:24:21.519Z,14.27
2018-05-14T10:26:48.984Z,16.23
2018-05-14T10:29:16.428Z,16.70
2018-05-14T10:31:43.902Z,15.80
2018-05-14T10:34:11.362Z,15.00
2018-05-14T10:36:38.830Z,15.88
2018-05-14T10:39:06.296Z,14.13
2018-05-14T10:41:33.763Z,14.98
2018-05-14T10:44:01.212Z,12.77
2018-05-14T10:46:29.454Z,13.02
2018-05-14T10:48:56.981Z,15.13
2018-05-14T10:51:25.226Z,12.25
2018-05-14T10:53:52.663Z,11.90
2018-05-14T10:56:20.135Z,11.53
2018-05-14T10:58:47.595Z,11.70
2018-05-14T11:01:15.043Z,13.07
2018-05-14T11:03:42.483Z,11.48
2018-05-14T11:06:09.955Z,14.23
2018-05-14T11:08:37.417Z,10.73
2018-05-14T11:11:04.875Z,11.18
2018-05-14T11:13:32.328Z,9.90
2018-05-14T11:15:59.773Z,12.37
2018-05-14T11:18:27.231Z,12.65
2018-05-14T11:20:54.690Z,10.02
2018-05-14T11:23:22.897Z,9.60
2018-05-14T11:25:50.379Z,13.35
2018-05-14T11:28:17.821Z,8.80
2018-05-14T11:30:45.282Z,11.17
2018-05-14T11:33:13.488Z,8.70
2018-05-14T11:35:40.950Z,10.02
2018-05-14T11:38:08.403Z,9.80
2018-05-14T11:40:36.640Z,9.87
2018-05-14T11:43:05.033Z,8.13
2018-05-14T11:45:32.484Z,7.90
2018-05-14T11:47:59.950Z,9.80
2018-05-14T11:50:27.412Z,7.30
2018-05-14T11:52:54.878Z,8.30
2018-05-14T11:55:23.166Z,7.05
2018-05-14T11:57:51.392Z,7.03
2018-05-14T12:00:19.587Z,7.95
2018-05-14T12:02:47.128Z,8.45
2018-05-14T12:05:14.488Z,8.15
2018-05-14T12:07:41.945Z,8.15
2018-05-14T12:10:10.160Z,6.90
2018-05-14T12:12:37.593Z,7.62
2018-05-14T12:15:05.847Z,7.05
2018-05-14T12:17:33.289Z,6.37
2018-05-14T12:20:00.728Z,6.25
2018-05-14T12:22:28.171Z,6.82
2018-05-14T12:24:56.403Z,8.02
2018-05-14T12:27:23.857Z,8.68
2018-05-14T12:29:51.327Z,6.03
2018-05-14T12:32:18.806Z,6.82
2018-05-14T12:34:46.266Z,8.18
2018-05-14T12:37:13.752Z,6.07
2018-05-14T12:39:41.219Z,6.10
2018-05-14T12:42:08.716Z,7.00
2018-05-14T12:44:36.165Z,7.12
2018-05-14T12:47:03.632Z,5.50
2018-05-14T12:49:31.185Z,7.65
2018-05-14T12:51:58.627Z,8.18
2018-05-14T12:54:26.063Z,6.55
2018-05-14T12:56:53.538Z,7.00
2018-05-14T12:59:21.016Z,6.53
2018-05-14T13:01:48.471Z,6.18
2018-05-14T13:04:15.926Z,9.82
2018-05-14T13:06:43.404Z,6.10
2018-05-14T13:09:10.848Z,6.28
2018-05-14T13:11:38.308Z,7.85
2018-05-14T13:14:05.748Z,5.57
2018-05-14T13:16:33.196Z,5.00
2018-05-14T13:19:00.657Z,6.73
2018-05-14T13:21:28.116Z,4.77
2018-05-14T13:23:55.560Z,4.85
2018-05-14T13:26:23.012Z,4.97
2018-05-14T13:28:51.234Z,10.02
2018-05-14T13:31:18.711Z,4.45
2018-05-14T13:33:46.168Z,5.37
2018-05-14T13:36:13.647Z,5.05
2018-05-14T13:38:41.263Z,6.45
2018-05-14T13:41:08.720Z,4.75
2018-05-14T13:43:36.765Z,4.62
2018-05-14T13:46:04.215Z,5.80
2018-05-14T13:48:31.694Z,5.65
2018-05-14T13:50:59.158Z,7.80
2018-05-14T13:53:27.360Z,6.80
2018-05-14T13:55:54.821Z,4.25
2018-05-14T13:58:22.312Z,6.23
2018-05-14T14:00:49.755Z,4.70
2018-05-14T14:03:17.261Z,4.07
2018-05-14T14:05:44.730Z,4.68
2018-05-14T14:08:12.171Z,6.72
2018-05-14T14:10:39.636Z,6.20
2018-05-14T14:13:07.091Z,5.30
2018-05-14T14:15:35.333Z,4.50
2018-05-14T14:18:02.806Z,5.60
2018-05-14T14:20:30.260Z,4.68
2018-05-14T14:22:57.743Z,5.00
2018-05-14T14:25:25.215Z,6.90
2018-05-14T14:27:52.664Z,5.80
2018-05-14T14:30:20.214Z,5.80
2018-05-14T14:32:47.668Z,5.28
2018-05-14T14:35:15.926Z,3.70
2018-05-14T14:37:43.377Z,7.22
2018-05-14T14:40:10.866Z,6.57
2018-05-14T14:42:38.435Z,4.70
2018-05-14T14:45:05.902Z,5.90
2018-05-14T14:47:33.370Z,5.80
2018-05-14T14:50:00.841Z,4.25
2018-05-14T14:52:28.310Z,6.03
2018-05-14T14:54:55.764Z,4.30
2018-05-14T14:57:23.262Z,4.00
2018-05-14T14:59:52.211Z,4.15
2018-05-14T15:02:19.865Z,5.30
2018-05-14T15:04:48.145Z,6.15
2018-05-14T15:07:16.390Z,6.07
2018-05-14T15:09:43.832Z,4.65
2018-05-14T15:12:11.271Z,4.28
2018-05-14T15:14:38.736Z,4.85
2018-05-14T15:17:06.190Z,5.13
2018-05-14T15:19:33.653Z,3.85
2018-05-14T15:22:01.195Z,4.90
2018-05-14T15:24:28.651Z,5.00
2018-05-14T15:26:56.895Z,4.57
2018-05-14T15:29:24.366Z,4.00
2018-05-14T15:31:51.810Z,6.60
2018-05-14T15:34:19.358Z,6.32
2018-05-14T15:36:46.864Z,6.35
2018-05-14T15:39:14.331Z,5.93
2018-05-14T15:41:41.794Z,6.40
2018-05-14T15:44:09.284Z,7.68
2018-05-14T15:46:36.854Z,5.85
2018-05-14T15:49:04.326Z,4.00
2018-05-14T15:51:31.826Z,6.55
2018-05-14T15:53:59.383Z,7.00
2018-05-14T15:56:26.983Z,4.40
2018-05-14T15:58:54.416Z,5.63
2018-05-14T16:01:21.894Z,7.47
2018-05-14T16:03:49.459Z,4.00
2018-05-14T16:06:16.916Z,5.15
2018-05-14T16:08:44.422Z,4.37
2018-05-14T16:11:12.684Z,4.93
2018-05-14T16:13:40.140Z,5.07
2018-05-14T16:16:07.608Z,9.63
2018-05-14T16:18:35.084Z,4.80
2018-05-14T16:21:02.563Z,4.70
2018-05-14T16:23:30.024Z,7.15
2018-05-14T16:25:57.552Z,3.90
2018-05-14T16:28:25.786Z,4.62
2018-05-14T16:30:53.232Z,4.10
2018-05-14T16:33:20.882Z,5.50
2018-05-14T16:35:49.227Z,6.80
2018-05-14T16:38:17.004Z,6.25
2018-05-14T16:40:44.455Z,5.12
2018-05-14T16:43:11.934Z,4.90
2018-05-14T16:45:41.376Z,6.60
2018-05-14T16:48:08.926Z,7.40
2018-05-14T16:50:36.496Z,5.72
2018-05-14T16:53:03.943Z,5.60
2018-05-14T16:55:31.402Z,5.00
2018-05-14T16:57:58.879Z,4.97
2018-05-14T17:00:26.379Z,6.68
2018-05-14T17:02:53.834Z,7.62
2018-05-14T17:05:21.285Z,6.68
2018-05-14T17:07:48.806Z,7.18
2018-05-14T17:10:16.372Z,12.30
2018-05-14T17:12:43.936Z,6.60
2018-05-14T17:15:11.510Z,7.03
2018-05-14T17:17:39.072Z,9.10
2018-05-14T17:20:06.561Z,5.50
2018-05-14T17:22:34.003Z,6.95
2018-05-14T17:25:01.493Z,7.50
2018-05-14T17:27:28.998Z,7.47
2018-05-14T17:29:57.207Z,8.15
2018-05-14T17:32:24.674Z,5.33
2018-05-14T17:34:52.180Z,7.47
2018-05-14T17:37:19.759Z,8.18
2018-05-14T17:39:47.236Z,9.85
2018-05-14T17:42:14.803Z,8.82
2018-05-14T17:44:42.248Z,7.18
2018-05-14T17:47:09.695Z,7.50
2018-05-14T17:49:37.140Z,6.70
2018-05-14T17:52:05.400Z,8.70
2018-05-14T17:54:32.874Z,9.18
2018-05-14T17:57:00.435Z,7.30
2018-05-14T17:59:27.908Z,7.93
2018-05-14T18:01:55.358Z,9.27
2018-05-14T18:04:22.845Z,6.18
2018-05-14T18:06:50.306Z,6.78
2018-05-14T18:09:17.768Z,6.32
2018-05-14T18:11:45.251Z,10.95
2018-05-14T18:14:12.714Z,8.18
2018-05-14T18:16:40.178Z,7.50
2018-05-14T18:19:07.635Z,9.13
2018-05-14T18:21:38.007Z,10.23
2018-05-14T18:24:07.011Z,9.67
2018-05-14T18:26:40.247Z,9.43
2018-05-14T18:29:08.487Z,10.30
2018-05-14T18:31:50.815Z,10.63
2018-05-14T18:34:18.355Z,8.32
2018-05-14T18:36:45.846Z,10.52
2018-05-14T18:39:13.377Z,9.00
2018-05-14T18:41:40.803Z,8.77
2018-05-14T18:44:14.210Z,7.33
2018-05-14T18:46:41.695Z,6.78
2018-05-14T18:49:09.147Z,8.38
2018-05-14T18:51:36.617Z,10.50
2018-05-14T18:54:04.064Z,7.40
2018-05-14T18:56:31.540Z,10.38
2018-05-14T18:58:58.991Z,13.80
2018-05-14T19:01:26.458Z,15.10
2018-05-14T19:03:53.966Z,12.43
2018-05-14T19:06:21.529Z,11.80
2018-05-14T19:08:49.007Z,9.17
2018-05-14T19:11:22.131Z,7.28
2018-05-14T19:13:49.682Z,7.10
2018-05-14T19:16:22.807Z,7.62
2018-05-14T19:18:50.298Z,9.38
2018-05-14T19:21:18.524Z,11.75
2018-05-14T19:23:51.699Z,7.82
2018-05-14T19:26:19.064Z,7.90
2018-05-14T19:28:52.337Z,8.02
2018-05-14T19:31:19.790Z,7.12
2018-05-14T19:33:53.014Z,9.50
2018-05-14T19:36:20.574Z,9.57
2018-05-14T19:38:48.116Z,8.82
2018-05-14T19:41:15.599Z,8.02
2018-05-14T19:43:43.067Z,8.82
2018-05-14T19:46:10.538Z,6.65
2018-05-14T19:48:38.012Z,8.82
2018-05-14T19:51:05.456Z,11.35
2018-05-14T19:53:32.931Z,10.25
2018-05-14T19:56:00.390Z,9.90
2018-05-14T19:58:27.851Z,8.88
2018-05-14T20:00:55.322Z,10.67
2018-05-14T20:03:22.819Z,11.30
2018-05-14T20:05:50.300Z,9.88
2018-05-14T20:08:17.776Z,8.57
2018-05-14T20:10:45.239Z,10.40
2018-05-14T20:13:12.709Z,8.23
2018-05-14T20:15:42.117Z,9.52
2018-05-14T20:18:09.577Z,10.48
2018-05-14T20:20:37.062Z,8.52
2018-05-14T20:23:04.528Z,7.80
2018-05-14T20:25:31.991Z,9.32
2018-05-14T20:27:59.543Z,9.38
2018-05-14T20:30:26.946Z,7.30
2018-05-14T20:32:54.420Z,8.85
2018-05-14T20:35:21.876Z,6.00
2018-05-14T20:37:49.329Z,7.37
2018-05-14T20:40:16.882Z,8.40
2018-05-14T20:42:45.111Z,7.55
2018-05-14T20:45:12.581Z,6.47
2018-05-14T20:47:40.029Z,6.47
2018-05-14T20:50:07.480Z,5.75
2018-05-14T20:52:34.942Z,8.02
2018-05-14T20:55:02.404Z,6.60
2018-05-14T20:57:30.628Z,7.68
2018-05-14T20:59:58.088Z,11.75
2018-05-14T21:02:25.555Z,6.68
2018-05-14T21:04:53.012Z,7.70
2018-05-14T21:07:20.582Z,9.60
2018-05-14T21:09:48.055Z,6.87
2018-05-14T21:12:15.508Z,6.82
2018-05-14T21:14:43.789Z,8.60
2018-05-14T21:17:11.191Z,6.18
2018-05-14T21:19:38.647Z,11.70
2018-05-14T21:22:06.135Z,7.90
2018-05-14T21:24:33.601Z,7.85
2018-05-14T21:27:01.079Z,5.85
2018-05-14T21:30:35.296Z,7.57
2018-05-14T21:33:03.530Z,8.18
2018-05-14T21:35:30.968Z,5.30
2018-05-14T21:37:58.449Z,8.52
2018-05-14T21:40:25.907Z,7.62
2018-05-14T21:42:53.367Z,9.52
2018-05-14T21:45:20.850Z,6.40
2018-05-14T21:47:48.310Z,6.20
2018-05-14T21:50:15.857Z,8.13
2018-05-14T21:52:43.282Z,8.60
2018-05-14T21:55:10.759Z,7.65
2018-05-14T21:57:38.227Z,7.10
2018-05-14T22:00:05.688Z,10.80
2018-05-14T22:02:33.178Z,10.07
2018-05-14T22:05:00.635Z,7.90
2018-05-14T22:07:28.091Z,5.80
2018-05-14T22:09:55.575Z,6.77
2018-05-14T22:12:23.030Z,6.30
2018-05-14T22:14:50.485Z,11.48
2018-05-14T22:17:17.980Z,8.73
2018-05-14T22:19:45.445Z,5.10
2018-05-14T22:22:12.913Z,8.80
2018-05-14T22:24:40.379Z,6.87
2018-05-14T22:27:08.127Z,7.12
2018-05-14T22:29:36.439Z,6.97
2018-05-14T22:32:03.951Z,6.53
2018-05-14T22:34:31.398Z,6.70
2018-05-14T22:36:58.876Z,19.75
2018-05-14T22:39:26.493Z,9.25
2018-05-14T22:41:53.958Z,9.13
2018-05-14T22:44:21.412Z,10.02
2018-05-14T22:46:49.644Z,8.50
2018-05-14T22:49:17.110Z,9.35
2018-05-14T22:51:44.564Z,10.40
2018-05-14T22:54:12.058Z,11.38
2018-05-14T22:56:39.527Z,6.60
2018-05-14T22:59:06.988Z,8.50
2018-05-14T23:01:34.475Z,7.73
2018-05-14T23:04:01.943Z,6.53
2018-05-14T23:06:29.411Z,7.10
2018-05-14T23:08:56.880Z,10.55
2018-05-14T23:11:24.335Z,7.12
2018-05-14T23:13:51.802Z,8.50
2018-05-14T23:16:19.285Z,6.72
2018-05-14T23:18:46.763Z,6.30
2018-05-14T23:21:14.230Z,6.70
2018-05-14T23:23:41.704Z,7.25
2018-05-14T23:26:09.178Z,9.10
2018-05-14T23:28:36.638Z,8.30
2018-05-14T23:31:04.119Z,7.95
2018-05-14T23:33:31.696Z,7.65
2018-05-14T23:35:59.162Z,7.90
2018-05-14T23:38:26.649Z,7.43
2018-05-14T23:40:54.118Z,6.03
2018-05-14T23:43:21.586Z,7.73
2018-05-14T23:45:49.056Z,9.75
2018-05-14T23:48:16.512Z,6.82
2018-05-14T23:50:43.971Z,6.50
2018-05-14T23:53:11.445Z,7.40
2018-05-14T23:55:38.905Z,7.62
2018-05-14T23:58:07.144Z,8.67
